Главная страница
METAR-TAF:

METAR-TAF

Аэропорты :

Констанца, Румыния

широта: 44-20N, долгота: 028-26E, высота над уровнем моря: 97 м

Текущие метеонаблюдения

Эта сводка был подготовлена 33 минут назад, в 15:30 UTC
Ветер 9 Узел от южный
Температура 9°C
Влажность 87%
Давление 1010 hPa
Видимость 10 км и более
Нет облачности ниже 1500 м, и нет кучево-дождевой облачности

METAR: LRCK 151530Z 18009KT CAVOK 09/07 Q1010 NOSIG

Время: 18:03 (16:03 UTC)

Прогноз

Эта сводка был подготовлена 5 часа и 3 минут назад, в 11:00 UTC
Прогноз действительный с 15-го 12 UTC до 16-го 12 UTC
Ветер 8 Узел от южный-юго-западный
Видимость 10 км и более
Нет облачности ниже 1500 м, и нет кучево-дождевой облачности
Вероятность 40% :
временами
С 16-го 03 UTC до 16-го 12 UTC
Ветер 15 Узел от южный-юго-западный с порывами до 25 Узел

TAF: LRCK 151100Z 1512/1612 20008KT CAVOK PROB40 TEMPO 1603/1612 21015G25KT

Метеонаблюдения и прогнозы для более 4000 аэропортов (сводки METAR и TAF).

Имеющиеся станции представлены на карте желтыми и красными точками.

Чтобы увидеть название станции, наведите на нее мышь.

Затем щелкните, чтобы увидеть метеонаблюдения и метеопрогнозы.

Управление картой: чтобы увеличить масштаб, щелкните зеленые кнопки с черным крестиком; чтобы уменьшить масштаб, щелкните зеленую кнопку с тире; для просмотра соседних карт щелкайте зеленые стрелки.


METAR-TAF: